createdAt,value
2023-02-25T02:39:30.247Z,53.17
2023-02-25T02:40:41.495Z,50.90
2023-02-25T02:44:24.713Z,51.33
2023-02-25T02:45:39.285Z,44.83
2023-02-25T02:46:48.385Z,56.58
2023-02-25T02:47:55.190Z,46.80
2023-02-25T02:49:30.763Z,53.88
2023-02-25T02:50:41.430Z,56.38
2023-02-25T02:51:58.843Z,48.88
2023-02-25T02:53:07.873Z,51.20
2023-02-25T02:54:14.426Z,60.40
2023-02-25T02:55:30.763Z,42.08
2023-02-25T02:56:35.365Z,51.92
2023-02-25T02:57:41.466Z,50.90
2023-02-25T02:58:50.535Z,41.30
2023-02-25T03:00:00.442Z,50.65
2023-02-25T03:01:11.816Z,51.33
2023-02-25T03:02:22.795Z,49.55
2023-02-25T03:03:36.459Z,49.83
2023-02-25T03:04:41.332Z,45.58
2023-02-25T03:05:46.804Z,43.63
2023-02-25T03:06:55.009Z,49.25
2023-02-25T03:08:10.659Z,42.67
2023-02-25T03:09:17.178Z,49.42
2023-02-25T03:10:21.441Z,44.60
2023-02-25T03:11:23.875Z,45.30
2023-02-25T03:12:25.740Z,44.50
2023-02-25T03:13:27.656Z,50.28
2023-02-25T03:14:30.114Z,47.25
2023-02-25T03:15:33.358Z,59.28
2023-02-25T03:16:44.539Z,50.58
2023-02-25T03:19:27.243Z,49.10
2023-02-25T03:20:34.920Z,53.25
2023-02-25T03:21:46.302Z,46.35
2023-02-25T03:22:50.103Z,49.70
2023-02-25T03:23:51.997Z,62.60
2023-02-25T03:25:16.152Z,46.50
2023-02-25T03:26:22.421Z,47.47
2023-02-25T03:27:24.503Z,51.13
2023-02-25T03:28:32.055Z,48.33
2023-02-25T03:29:34.725Z,43.75
2023-02-25T03:30:43.417Z,53.08
2023-02-25T03:32:01.749Z,44.95
2023-02-25T03:33:09.394Z,48.17
2023-02-25T03:34:24.674Z,45.42
2023-02-25T03:35:28.738Z,42.80
2023-02-25T03:37:02.706Z,41.00
2023-02-25T03:38:16.977Z,45.80
2023-02-25T03:39:22.879Z,50.25
2023-02-25T03:40:28.065Z,44.20
2023-02-25T03:41:35.611Z,54.90
2023-02-25T03:42:42.045Z,44.13
2023-02-25T03:43:50.817Z,42.58
2023-02-25T03:44:56.743Z,45.10
2023-02-25T03:45:59.494Z,50.75
2023-02-25T03:47:03.853Z,70.53
2023-02-25T03:48:07.726Z,45.33
2023-02-25T03:49:16.066Z,44.40
2023-02-25T03:50:28.208Z,61.45
2023-02-25T03:51:34.187Z,45.58
2023-02-25T03:52:36.572Z,43.47
2023-02-25T03:53:38.595Z,40.80
2023-02-25T03:54:40.610Z,40.47
2023-02-25T03:55:42.712Z,43.28
2023-02-25T03:56:48.147Z,49.47
2023-02-25T03:57:51.415Z,42.42
2023-02-25T03:58:53.321Z,50.58
2023-02-25T03:59:56.547Z,40.30
2023-02-25T04:01:02.819Z,55.00
2023-02-25T04:02:05.304Z,54.00
2023-02-25T04:03:07.247Z,48.85
2023-02-25T04:04:09.349Z,57.40
2023-02-25T04:05:12.042Z,47.25
2023-02-25T04:06:14.711Z,40.25
2023-02-25T04:07:16.512Z,44.17
2023-02-25T04:08:19.708Z,48.25
2023-02-25T04:09:21.629Z,40.53
2023-02-25T04:10:24.247Z,51.13
2023-02-25T04:11:26.154Z,42.17
2023-02-25T04:12:28.008Z,42.13
2023-02-25T04:13:30.038Z,45.20
2023-02-25T04:14:31.860Z,35.60
2023-02-25T04:15:33.859Z,48.90
2023-02-25T04:16:35.980Z,36.55
2023-02-25T04:17:37.838Z,37.92
2023-02-25T04:18:40.057Z,46.33
2023-02-25T04:19:41.855Z,41.60
2023-02-25T04:20:43.902Z,37.08
2023-02-25T04:21:45.822Z,43.33
2023-02-25T04:22:47.578Z,45.92
2023-02-25T04:23:49.429Z,55.38
2023-02-25T04:24:51.519Z,42.33
2023-02-25T04:25:53.366Z,41.70
2023-02-25T04:26:58.432Z,50.78
2023-02-25T04:28:00.782Z,41.45
2023-02-25T04:29:03.906Z,40.75
2023-02-25T04:30:06.373Z,42.80
2023-02-25T04:31:08.305Z,41.95
2023-02-25T04:32:11.286Z,60.15
2023-02-25T04:33:13.484Z,41.70
2023-02-25T04:34:15.292Z,41.83
2023-02-25T04:35:17.536Z,44.92
2023-02-25T04:36:30.559Z,45.03
2023-02-25T04:37:32.512Z,38.53
2023-02-25T04:38:34.779Z,42.42
2023-02-25T04:39:37.103Z,54.70
2023-02-25T04:40:38.930Z,56.45
2023-02-25T04:41:41.261Z,35.90
2023-02-25T04:42:43.751Z,44.38
2023-02-25T04:43:45.739Z,42.33
2023-02-25T04:44:47.625Z,39.78
2023-02-25T04:45:49.901Z,42.95
2023-02-25T04:46:52.256Z,51.38
2023-02-25T04:47:57.873Z,46.92
2023-02-25T04:49:00.157Z,52.25
2023-02-25T04:50:02.924Z,57.40
2023-02-25T04:51:05.433Z,34.67
2023-02-25T04:52:07.270Z,41.45
2023-02-25T04:53:09.133Z,45.80
2023-02-25T04:54:11.998Z,44.80
2023-02-25T04:55:13.944Z,31.55
2023-02-25T04:56:16.367Z,31.23
2023-02-25T04:57:18.217Z,35.33
2023-02-25T04:58:20.080Z,35.45
2023-02-25T04:59:21.966Z,49.13
2023-02-25T05:00:24.481Z,39.55
2023-02-25T05:01:26.420Z,48.03
2023-02-25T05:02:28.533Z,66.13
2023-02-25T05:03:30.476Z,37.13
2023-02-25T05:04:32.616Z,42.55
2023-02-25T05:05:34.649Z,42.90
2023-02-25T05:06:36.540Z,41.70
2023-02-25T05:07:39.062Z,35.17
2023-02-25T05:08:41.627Z,31.85
2023-02-25T05:09:44.242Z,41.35
2023-02-25T05:10:46.292Z,34.00
2023-02-25T05:11:48.212Z,43.47
2023-02-25T05:12:50.380Z,47.92
2023-02-25T05:13:52.472Z,49.75
2023-02-25T05:14:54.372Z,43.90
2023-02-25T05:16:08.144Z,35.40
2023-02-25T05:17:10.027Z,42.97
2023-02-25T05:18:12.487Z,31.83
2023-02-25T05:19:22.852Z,38.78
2023-02-25T05:20:24.734Z,41.13
2023-02-25T05:21:27.608Z,45.60
2023-02-25T05:22:29.518Z,32.78
2023-02-25T05:23:31.415Z,43.00
2023-02-25T05:24:34.607Z,35.67
2023-02-25T05:25:41.434Z,48.17
2023-02-25T05:26:43.339Z,55.30
2023-02-25T05:27:45.212Z,45.50
2023-02-25T05:28:49.767Z,45.65
2023-02-25T05:29:51.831Z,46.38
2023-02-25T05:30:55.427Z,35.28
2023-02-25T05:31:57.452Z,36.85
2023-02-25T05:32:59.578Z,57.95
2023-02-25T05:34:02.016Z,49.35
2023-02-25T05:35:04.485Z,39.97
2023-02-25T05:36:07.998Z,43.88
2023-02-25T05:37:10.878Z,39.10
2023-02-25T05:38:12.752Z,52.67
2023-02-25T05:39:15.072Z,39.75
2023-02-25T05:40:17.160Z,50.78
2023-02-25T05:41:19.038Z,41.85
2023-02-25T05:42:21.247Z,45.45
2023-02-25T05:43:23.071Z,36.92
2023-02-25T05:44:25.080Z,33.58
2023-02-25T05:45:26.875Z,62.63
2023-02-25T05:46:28.886Z,42.03
2023-02-25T05:47:30.753Z,43.47
2023-02-25T05:48:32.952Z,38.60
2023-02-25T05:49:34.797Z,43.35
2023-02-25T05:50:41.690Z,54.33
2023-02-25T05:51:43.608Z,52.28
2023-02-25T05:52:45.563Z,50.95
2023-02-25T05:53:49.242Z,36.95
2023-02-25T05:54:51.216Z,45.00
2023-02-25T05:55:53.033Z,39.65
2023-02-25T05:56:54.911Z,72.13
2023-02-25T05:57:56.869Z,41.58
2023-02-25T05:58:58.851Z,33.40
2023-02-25T06:00:01.682Z,37.30
2023-02-25T06:01:13.644Z,30.92
2023-02-25T06:02:15.725Z,38.13
2023-02-25T06:03:17.733Z,41.40
2023-02-25T06:04:19.625Z,39.65
2023-02-25T06:05:21.455Z,32.83
2023-02-25T06:06:24.313Z,35.65
2023-02-25T06:07:28.932Z,60.15
2023-02-25T06:08:30.794Z,74.32
2023-02-25T06:09:34.784Z,62.08
2023-02-25T06:10:38.427Z,51.42
2023-02-25T06:11:40.254Z,47.80
2023-02-25T06:12:42.317Z,34.60
2023-02-25T06:13:44.401Z,36.10
2023-02-25T06:14:46.230Z,38.60
2023-02-25T06:15:48.269Z,35.88
2023-02-25T06:16:51.498Z,36.88
2023-02-25T06:17:53.391Z,41.88
2023-02-25T06:18:56.465Z,39.88
2023-02-25T06:19:58.428Z,39.92
2023-02-25T06:21:05.549Z,40.40
2023-02-25T06:22:08.387Z,40.90
2023-02-25T06:23:10.445Z,49.53
2023-02-25T06:24:12.391Z,51.20
2023-02-25T06:25:14.270Z,54.33
2023-02-25T06:26:16.844Z,50.63
2023-02-25T06:27:18.880Z,58.97
2023-02-25T06:28:20.946Z,63.20
2023-02-25T06:29:22.864Z,49.25
2023-02-25T06:30:25.122Z,37.42
2023-02-25T06:31:27.809Z,31.27
2023-02-25T06:32:30.082Z,29.55
2023-02-25T06:33:32.303Z,30.17
2023-02-25T06:34:34.713Z,30.55
2023-02-25T06:35:36.619Z,37.47
2023-02-25T06:36:38.462Z,47.50
2023-02-25T06:37:40.543Z,34.20
2023-02-25T06:38:43.329Z,35.42
2023-02-25T06:39:45.551Z,36.30
2023-02-25T06:40:49.081Z,35.58
2023-02-25T06:41:51.076Z,28.90
2023-02-25T06:42:53.126Z,35.10
2023-02-25T06:43:55.300Z,40.42
2023-02-25T06:44:57.148Z,40.20
2023-02-25T06:45:59.254Z,43.50
2023-02-25T06:47:01.133Z,36.72
2023-02-25T06:48:03.084Z,39.92
2023-02-25T06:49:04.920Z,42.45
2023-02-25T06:50:07.436Z,52.53
2023-02-25T06:51:09.629Z,46.72
2023-02-25T06:52:11.603Z,47.17
2023-02-25T06:53:13.532Z,43.53
2023-02-25T06:54:17.039Z,38.92
2023-02-25T06:55:19.329Z,42.97
2023-02-25T06:56:22.638Z,39.13
2023-02-25T06:57:24.695Z,44.17
2023-02-25T06:58:26.546Z,38.95
2023-02-25T06:59:28.474Z,47.00
2023-02-25T07:00:30.558Z,38.00
2023-02-25T07:01:32.737Z,38.00
2023-02-25T07:02:34.614Z,37.13
2023-02-25T07:03:36.815Z,41.58
2023-02-25T07:04:39.130Z,43.28
2023-02-25T07:05:41.082Z,38.50
2023-02-25T07:06:43.001Z,43.13
2023-02-25T07:08:46.898Z,39.83
2023-02-25T07:09:49.167Z,40.70
2023-02-25T07:10:51.005Z,37.72
2023-02-25T07:11:52.884Z,40.65
2023-02-25T07:12:54.713Z,36.92
2023-02-25T07:13:57.093Z,36.45
2023-02-25T07:14:59.610Z,44.15
2023-02-25T07:16:01.504Z,49.47
2023-02-25T07:17:03.884Z,43.42
2023-02-25T07:18:06.271Z,44.67
2023-02-25T07:19:08.165Z,38.28
2023-02-25T07:20:12.704Z,39.28
2023-02-25T07:21:15.910Z,32.17
2023-02-25T07:22:18.820Z,36.33
2023-02-25T07:23:21.135Z,34.88
2023-02-25T07:24:23.393Z,38.60
2023-02-25T07:25:25.333Z,34.08
2023-02-25T07:26:28.437Z,41.67
2023-02-25T07:27:30.373Z,36.97
2023-02-25T07:28:32.794Z,34.97
2023-02-25T07:29:34.649Z,30.58
2023-02-25T07:30:36.525Z,30.23
2023-02-25T07:31:38.548Z,32.55
2023-02-25T07:32:42.553Z,28.05
2023-02-25T07:33:44.741Z,27.30
2023-02-25T07:34:46.618Z,29.05
2023-02-25T07:35:48.449Z,29.13
2023-02-25T07:36:50.285Z,23.75
2023-02-25T07:37:52.388Z,27.95
2023-02-25T07:38:54.356Z,24.00
2023-02-25T07:39:59.759Z,25.45
2023-02-25T07:41:10.865Z,25.48
2023-02-25T07:42:12.686Z,25.25
2023-02-25T07:43:14.789Z,26.67
2023-02-25T07:44:16.617Z,26.92
2023-02-25T07:45:18.524Z,28.92
2023-02-25T07:46:20.389Z,25.38
2023-02-25T07:47:22.461Z,24.98
2023-02-25T07:48:24.367Z,26.25
2023-02-25T07:49:26.464Z,23.58
2023-02-25T07:50:28.418Z,27.08
2023-02-25T07:51:30.339Z,25.48
2023-02-25T07:52:32.382Z,24.55
2023-02-25T07:53:35.080Z,27.45
2023-02-25T07:54:40.043Z,26.05
2023-02-25T07:55:45.397Z,27.90
2023-02-25T07:56:51.481Z,26.20
2023-02-25T09:01:23.853Z,17.60
2023-02-25T09:29:37.032Z,11.60
2023-02-25T09:30:29.793Z,8.02
2023-02-25T09:31:33.841Z,8.35
2023-02-25T09:32:36.583Z,9.82
2023-02-25T09:33:57.444Z,9.38
2023-02-25T09:35:02.936Z,8.23
2023-02-25T09:36:10.916Z,9.43
2023-02-25T09:37:14.518Z,8.60
2023-02-25T09:38:17.595Z,10.55
2023-02-25T09:39:20.071Z,8.85
2023-02-25T09:40:23.449Z,11.50
2023-02-25T09:41:59.287Z,8.85
2023-02-25T09:43:22.134Z,7.15
2023-02-25T09:44:47.869Z,8.43
2023-02-25T09:45:51.518Z,6.90
2023-02-25T09:47:09.804Z,8.73
2023-02-25T09:48:28.726Z,7.05
2023-02-25T09:50:38.535Z,6.85
2023-02-25T09:51:49.007Z,9.25
2023-02-25T09:53:12.498Z,9.02
2023-02-25T09:54:23.211Z,9.10
2023-02-25T09:55:54.299Z,9.23
2023-02-25T09:56:59.699Z,11.65
2023-02-25T09:58:35.172Z,11.00
2023-02-25T09:59:49.093Z,11.13
2023-02-25T10:00:59.529Z,11.60
2023-02-25T10:02:13.239Z,12.27
2023-02-25T10:05:14.488Z,12.50
2023-02-25T10:06:52.414Z,15.88
2023-02-25T10:08:14.144Z,13.40
2023-02-25T10:15:02.830Z,12.88
2023-02-25T10:16:48.145Z,14.80
2023-02-25T10:17:58.871Z,18.30
2023-02-25T10:19:16.109Z,13.38
2023-02-25T10:20:42.158Z,11.27
2023-02-25T10:22:10.068Z,13.90
2023-02-25T10:24:08.281Z,10.70
2023-02-25T10:25:30.430Z,13.90
2023-02-25T10:26:41.121Z,11.68
2023-02-25T10:28:04.651Z,11.27
2023-02-25T10:29:12.969Z,10.63
2023-02-25T10:30:22.382Z,8.90
2023-02-25T10:32:47.332Z,10.77
2023-02-25T10:33:52.958Z,11.57
2023-02-25T10:35:00.231Z,9.80
2023-02-25T10:36:34.029Z,10.73
2023-02-25T10:37:38.241Z,13.05
2023-02-25T10:38:45.477Z,10.02
2023-02-25T10:39:51.009Z,8.95
2023-02-25T10:40:58.104Z,8.10
2023-02-25T10:42:03.197Z,8.30
2023-02-25T10:43:22.646Z,9.55
2023-02-25T10:44:24.761Z,9.52
2023-02-25T10:45:31.085Z,8.63
2023-02-25T10:46:55.606Z,10.68
2023-02-25T10:48:23.962Z,8.90
2023-02-25T10:49:28.805Z,7.63
2023-02-25T10:50:44.940Z,6.25
2023-02-25T10:52:10.570Z,26.23
2023-02-25T10:53:18.214Z,8.35
2023-02-25T10:54:23.631Z,8.48
2023-02-25T10:55:44.442Z,6.40
2023-02-25T10:56:49.996Z,8.98
2023-02-25T10:57:52.623Z,6.30
2023-02-25T10:59:24.308Z,8.40
2023-02-25T11:01:39.641Z,6.72
2023-02-25T11:02:43.436Z,6.30
2023-02-25T11:03:59.719Z,6.72
2023-02-25T11:05:07.533Z,7.15
2023-02-25T11:06:21.195Z,8.07
2023-02-25T11:07:35.645Z,8.23
2023-02-25T11:08:37.888Z,9.02
2023-02-25T11:09:40.231Z,11.25
2023-02-25T11:10:42.234Z,7.72
2023-02-25T11:12:00.296Z,8.10
2023-02-25T11:13:06.237Z,8.73
2023-02-25T11:14:16.815Z,9.82
2023-02-25T11:15:42.071Z,7.93
2023-02-25T11:16:51.483Z,8.32
2023-02-25T11:18:04.766Z,9.35
2023-02-25T11:19:27.949Z,10.30
2023-02-25T11:22:43.530Z,9.43
2023-02-25T11:23:52.315Z,9.80
2023-02-25T11:24:59.820Z,12.13
2023-02-25T11:26:02.214Z,11.35
2023-02-25T13:56:05.696Z,16.42
2023-02-25T13:57:28.416Z,18.00
2023-02-25T13:58:55.397Z,19.50
2023-02-25T14:00:42.981Z,15.95
2023-02-25T14:02:16.834Z,16.13
2023-02-25T14:03:37.648Z,16.65
2023-02-25T14:04:48.303Z,17.60
2023-02-25T14:06:22.409Z,18.35
2023-02-25T14:08:24.980Z,15.50
2023-02-25T14:09:46.336Z,20.40
2023-02-25T14:11:43.445Z,18.05
2023-02-25T14:13:21.977Z,17.88
2023-02-25T14:14:36.428Z,17.73
2023-02-25T14:15:38.412Z,15.95
2023-02-25T14:17:29.570Z,18.05
2023-02-25T14:18:54.249Z,16.90
2023-02-25T14:20:36.516Z,18.15
2023-02-25T14:22:05.943Z,16.88
2023-02-25T14:23:42.138Z,20.27
2023-02-25T14:24:55.952Z,15.52
2023-02-25T14:26:34.762Z,14.32
2023-02-25T14:27:55.160Z,15.45
2023-02-25T14:29:09.484Z,14.35
2023-02-25T14:30:20.521Z,16.80
2023-02-25T14:31:28.074Z,14.05
2023-02-25T14:32:53.976Z,15.45
2023-02-25T14:34:14.766Z,16.08
2023-02-25T14:35:47.303Z,16.38
2023-02-25T14:37:13.591Z,17.90
2023-02-25T14:38:23.603Z,15.38
2023-02-25T14:39:42.787Z,12.82
2023-02-25T14:41:12.160Z,16.35
2023-02-25T14:42:32.745Z,12.32
2023-02-25T14:43:36.991Z,12.68
2023-02-25T14:44:59.452Z,14.57
2023-02-25T14:46:15.892Z,12.15
2023-02-25T14:47:31.879Z,11.43
2023-02-25T14:48:55.591Z,12.02
2023-02-25T14:50:12.297Z,13.35
2023-02-25T14:51:29.512Z,13.82
2023-02-25T14:52:31.896Z,11.32
2023-02-25T14:54:10.973Z,12.40
2023-02-25T14:55:41.788Z,14.45
2023-02-25T14:57:09.195Z,11.45
2023-02-25T14:58:25.668Z,11.55
2023-02-25T14:59:46.267Z,11.27
2023-02-25T15:01:06.458Z,10.55
2023-02-25T15:02:13.694Z,11.05
2023-02-25T15:03:36.250Z,12.57
2023-02-25T15:05:02.617Z,12.63
2023-02-25T15:06:17.925Z,13.70
2023-02-25T15:07:58.892Z,12.15
2023-02-25T15:09:21.345Z,12.83
2023-02-25T15:10:49.941Z,13.82
2023-02-25T15:12:42.044Z,14.80
2023-02-25T15:15:02.452Z,15.25
2023-02-25T15:16:15.032Z,13.52
2023-02-25T15:17:41.543Z,14.75
2023-02-25T15:19:20.469Z,14.65
2023-02-25T15:20:38.954Z,13.10
2023-02-25T15:21:46.665Z,12.50
2023-02-25T15:23:19.792Z,12.45
2023-02-25T15:24:27.914Z,12.05
2023-02-25T15:25:45.479Z,14.18
2023-02-25T15:26:52.012Z,14.60
2023-02-25T15:27:56.700Z,14.80
2023-02-25T15:28:58.977Z,14.68
2023-02-25T15:30:02.657Z,13.52
2023-02-25T15:31:29.930Z,14.23
2023-02-25T15:32:57.554Z,14.38
2023-02-25T15:34:20.707Z,16.77
2023-02-25T15:35:45.229Z,14.65
2023-02-25T15:36:52.222Z,14.25
2023-02-25T15:37:54.404Z,14.18
2023-02-25T15:38:57.054Z,13.65
2023-02-25T15:40:16.934Z,13.50
2023-02-25T15:41:27.256Z,12.77
2023-02-25T15:42:50.196Z,12.20
2023-02-25T15:43:53.915Z,12.45
2023-02-25T15:45:28.103Z,13.90
2023-02-25T15:46:36.247Z,13.60
2023-02-25T15:47:38.928Z,12.57
2023-02-25T15:48:42.379Z,13.20
2023-02-25T15:49:49.141Z,8.57
2023-02-25T15:50:53.389Z,11.48
2023-02-25T15:51:57.183Z,10.48
2023-02-25T15:53:00.071Z,10.93
2023-02-25T15:54:02.440Z,14.18
2023-02-25T15:55:32.488Z,11.57
2023-02-25T15:56:50.097Z,11.13
2023-02-25T15:57:52.032Z,10.48
2023-02-25T15:58:59.539Z,9.60
2023-02-25T16:00:01.360Z,9.15
2023-02-25T16:01:06.231Z,11.05
2023-02-25T16:02:26.624Z,11.40
2023-02-25T16:03:38.485Z,12.10
2023-02-25T16:04:48.788Z,12.45
2023-02-25T16:05:52.099Z,10.43
2023-02-25T16:06:54.898Z,12.18
2023-02-25T16:08:13.375Z,10.82
2023-02-25T16:09:18.644Z,12.68
2023-02-25T16:10:44.714Z,11.48
2023-02-25T16:11:56.113Z,12.07
2023-02-25T16:12:59.026Z,12.60
2023-02-25T16:14:11.189Z,12.32
2023-02-25T16:15:39.603Z,12.90
2023-02-25T16:16:52.811Z,15.38
2023-02-25T16:17:57.630Z,11.68
2023-02-25T16:19:01.588Z,12.60
2023-02-25T16:20:25.953Z,11.70
2023-02-25T16:21:40.790Z,17.25
2023-02-25T16:22:46.078Z,14.45
2023-02-25T16:23:48.383Z,15.70
2023-02-25T16:24:53.140Z,14.00
2023-02-25T16:26:13.722Z,14.25
2023-02-25T16:27:53.083Z,16.45
2023-02-25T16:29:01.133Z,16.52
2023-02-25T16:30:21.927Z,12.05
2023-02-25T16:31:31.244Z,14.73
2023-02-25T16:33:01.695Z,15.25
2023-02-25T16:34:13.553Z,14.65
2023-02-25T16:35:34.489Z,14.23
2023-02-25T16:37:06.396Z,14.20
2023-02-25T16:38:32.446Z,16.17
2023-02-25T16:39:35.209Z,12.95
2023-02-25T16:40:42.784Z,17.33
2023-02-25T16:41:45.189Z,13.55
2023-02-25T16:42:47.570Z,14.73
2023-02-25T16:43:50.145Z,17.20
2023-02-25T16:45:01.270Z,17.08
2023-02-25T16:47:21.562Z,13.90
2023-02-25T16:48:33.442Z,16.17
2023-02-25T19:24:29.475Z,17.85
2023-02-25T19:25:35.567Z,10.60
2023-02-25T19:26:38.793Z,11.68
2023-02-25T19:27:41.151Z,12.13
2023-02-25T19:28:43.139Z,11.27
2023-02-25T19:32:16.766Z,13.20
2023-02-25T19:36:02.290Z,12.35
2023-02-25T19:37:47.196Z,13.20
2023-02-25T19:39:15.921Z,11.32
2023-02-25T19:42:34.583Z,9.90
2023-02-25T19:47:03.339Z,9.48
2023-02-25T19:51:58.143Z,9.80
2023-02-25T20:00:20.372Z,9.73
2023-02-25T20:37:03.200Z,10.43
2023-02-25T20:53:51.554Z,10.65
2023-02-25T21:01:08.627Z,11.90
2023-02-25T21:02:11.815Z,10.20
2023-02-25T21:03:13.700Z,12.25
2023-02-25T21:04:15.685Z,11.55
2023-02-25T21:05:17.628Z,10.88
2023-02-25T21:06:23.398Z,11.98
2023-02-25T21:07:25.601Z,10.20
2023-02-25T21:08:27.506Z,10.52
2023-02-25T21:09:29.646Z,12.38
2023-02-25T21:10:31.593Z,12.63
2023-02-25T21:11:41.228Z,10.93
2023-02-25T21:12:43.116Z,11.70
2023-02-25T21:13:48.037Z,11.10
2023-02-25T21:14:50.028Z,12.88
2023-02-25T21:15:51.954Z,11.98
2023-02-25T21:16:56.958Z,14.05
2023-02-25T21:17:58.879Z,14.93
2023-02-25T21:19:01.223Z,11.75
2023-02-25T21:20:05.792Z,11.68
2023-02-25T21:21:09.705Z,11.65
2023-02-25T21:22:11.626Z,10.70
2023-02-25T21:23:13.535Z,11.20
2023-02-25T21:24:15.603Z,12.48
2023-02-25T21:25:17.651Z,10.93
2023-02-25T21:26:19.652Z,11.40
2023-02-25T21:27:23.904Z,11.68
2023-02-25T21:28:26.021Z,13.43
2023-02-25T21:29:27.976Z,9.23
2023-02-25T21:30:30.015Z,12.52
2023-02-25T21:31:32.236Z,10.65
2023-02-25T21:32:34.304Z,12.93
2023-02-25T21:33:37.549Z,11.05
2023-02-25T21:34:40.006Z,13.45
2023-02-25T21:35:45.593Z,12.90
2023-02-25T21:36:47.459Z,10.38
2023-02-25T21:37:49.391Z,12.60
2023-02-25T21:38:51.436Z,10.35
2023-02-25T21:39:53.401Z,9.77
2023-02-25T21:40:57.154Z,13.23
2023-02-25T21:41:59.028Z,12.07
2023-02-25T21:43:00.914Z,10.10
2023-02-25T21:44:03.175Z,10.55
2023-02-25T21:45:05.760Z,9.40
2023-02-25T21:46:13.601Z,9.88
2023-02-25T21:47:15.521Z,9.63
2023-02-25T21:48:17.459Z,11.88
2023-02-25T21:49:19.414Z,10.75
2023-02-25T21:50:21.499Z,11.77
2023-02-25T21:51:25.177Z,10.80
2023-02-25T22:16:14.459Z,8.25
